Saturday, March 07, 2015
00:08 UTC
  |  Log In   |  Register Free
Airport Search:

Okmulgee Regional Airport
(KOKM)

Okmulgee Regional Airport Diagram
No Airport Diagram Available

FAA data valid effective March 05, 2015 - April 30, 2015 (unless otherwise noted).

 
 
 
 
 
 
 
 
 
 
 
 
 
 

Current Aviation Weather for Okmulgee Regional Airport (KOKM)

The most recent METAR observation for KOKM was updated at: 2313
METAR Summary (Translated METAR)
KOKM
062255Z AUTO 21009G18KT 10SM CLR 12/M03 A3037 RMK AO2 T01231031
KF10
081459Z 31001KT 16/16 RMK PK WND 29004KT PCPN 1/3/6/12/24H 0.00 0.01 0.02 0.02 0.04
(16 nm SW from KOKM)
KRVS
062253Z 21009KT 10SM CLR 14/M04 A3036 RMK AO2 SLP288 T01391044
(22.4 nm NW from KOKM)
TAF Summary (Translated TAF)
KRVS
(22.4 nm NW from KOKM)
061720Z 0618/0718 23011G19KT P6SM SKC FM070000 VRB03KT P6SM SKC FM071700 21008KT P6SM SKC
  Airport Weather Conditions for KOKM

 Current Weather at OKM
55° F
Fair
Southwest winds at 10.4 mph
OKM NOAA Radar

Pressure: 30.38 in
Humidity: 35%
Wind: from the Southwest at 10.4 gusting to 20.7 MPH (9 gusting to 18 KT)
Dew Point: 27.1°F
Visibility: 10.00 mi


Airport Weather Forecast for KOKM

Translated METAR and TAF for KOKM
Translated METAR for KOKM (0007 UTC 07 March 2015)
found at http://aviationweather.gov/adds/metars/
 
METAR text: KOKM 062355Z AUTO 21007G15KT 10SM CLR 11/M03 A3037 RMK AO2 T01141033 10127 20085
Conditions at: KOKM (OKMULGEE , OK, US) observed 2355 UTC 06 March 2015
Temperature: 11.4°C (53°F)
Dewpoint: -3.3°C (26°F) [RH = 36%]
Pressure (altimeter): 30.37 inches Hg (1028.5 mb)
Winds: from the SSW (210 degrees) at 8 MPH (7 knots; 3.6 m/s)
gusting to 17 MPH (15 knots; 7.8 m/s)
Visibility: 10 or more miles (16+ km)
Ceiling: at least 12,000 feet AGL
Clouds: sky clear below 12,000 feet AGL
Weather: automated observation with no human augmentation;
there may or may not be significant weather present at this time
Translated TAF for KOKM

There is no translated TAF available for this airport

Find All Airport Services Find A Hotel Find A Rental Car Find A Golf Course Find A Restaurant $100 Hamburger



FBO's on the Field
FBO Company Facility Photos Services Transportation Aviation Fuel Prices: Prices include tax
Catering Weather Repair Courtesy Rental Type 100LL JetA JetA+ MOGAS 8087
 
Okmulgee Regional Airport

This FBO has not yet been rated
FS:Phillips 66
Last Updated: Feb-23
Login to update fuel prices
SS:
Contact Okmulgee Regional AirportMore FBO Information
 
Add another FBO Facility Photos Catering Weather Repair Courtesy Rental Type 100LL JetA JetA+ MOGAS 8087
Services Transportation Aviation Fuel Prices: Prices include tax


model-print
model-print
model-print
model-print